ENBRLGKR

Guest
Details From ENBR - Bergen Lufthavn Flesland
To LGKR - Ioannis Kapodistrias Intl
Flight Number -
Tags Generated
Created
Modified
Stats Distance 1,360 nm / 2,518 km
Max Altitude 0 ft / 0 m
Waypoints 8
Social Downloads 0
Likes 0
Share VATSIM

Download

Looking for another format? Having issues loading an existing format? Contact us
Advertisement - Login to hide

Notes

Generated

Route

ENBR KEMEG PAH PR814 NIDLO MSR GAR02 LGKR

ID Type Via Altitude Latitude Longitude Leg Dist Tot Dist Heading (true) Name
O ENBR APT - 0 ft / 0 m 60.30662˚ 5.21370˚ - 0 nm - -
KEMEG FIX - 0 ft / 0 m 56.72083˚ 8.87250˚ 243 nm 243 nm 150° / 153° -
PAH NDB - 0 ft / 0 m 53.39422˚ 11.66589˚ 221 nm 465 nm 153° / 155° SCHWERIN-PARCHIM NDB
PR814 FIX - 0 ft / 0 m 50.12333˚ 13.97333˚ 214 nm 679 nm 155° / 157° -
NIDLO FIX - 0 ft / 0 m 46.80334˚ 15.99468˚ 215 nm 894 nm 157° / 159° -
MSR VOR - 0 ft / 0 m 43.26136˚ 17.85573˚ 226 nm 1121 nm 159° / 160° MOSTAR VOR-DME
GAR02 FIX - 0 ft / 0 m 39.63925˚ 19.90187˚ 236 nm 1358 nm 156° / 158° -
O LGKR APT - 0 ft / 0 m 39.61228˚ 19.90921˚ 1 nm 1359 nm 168° / 168° -

Altitude Profile

Advertisement - Login to hide

Weather


0- 5 10 15 20 25 30 35+ Temperature / ° C

Clouds and Precipitation
Forecast for 2018-05-23 18:00 UTC. Updated 4 hours ago

Ground ~20,000 ft ~40,000 ft Winds

ENBR

Details ICAO ENBR (BGO)
Name Bergen Lufthavn Flesland
Region Norway
Timezone Europe/Oslo (UTC+2.0)
Stats Elevation 165 ft / 50 m (AMSL)
Location 60.293388° 5.218140°
Runways 1
Magnetic Variation 0.919° E

METAR

ENBR 232050Z 19006KT 9999 BKN010 09/09 Q1028 RMK WIND 1200FT 18010KT

Decode

TAF

TAF AMD TAF AMD ENBR 231941Z 2319/2418 18008KT 9999 BKN010 PROB40 2322/2408 0500 FG VV002 BECMG 2407/2409 FEW010 PROB40 2414/2418 34010KT

Decode

Departure Runways

ID Width Length Bearing (true) Bearing (mag) Surface Threshold Offset Overrun Length
17 148 ft / 45 m 9,793 ft / 2,985 m 170.56° 169.64° Asphalt 886 ft / 270 m 0 ft / 0 m
35 148 ft / 45 m 9,793 ft / 2,985 m 350.57° 349.65° Asphalt 886 ft / 270 m 0 ft / 0 m

LGKR

Details ICAO LGKR (CFU)
Name IOANNIS KAPODISTRIAS INTL
Region Greece
Timezone Europe/Athens (UTC+3.0)
Stats Elevation 6 ft / 2 m (AMSL)
Location 39.601779° 19.911908°
Runways 1
Magnetic Variation 4.142° E

METAR

LGKR 232050Z 14012KT 7000 -TSRA SCT015 FEW018CB BKN025 BKN080 22/20 Q1012 TEMPO 5000 TSRA

Decode

TAF

TAF LGKR 231700Z 2318/2418 12012KT 6000 FEW015 SCT025 PROB40 TEMPO 2318/2406 5000 RA SCT015 BKN025 BKN080 PROB30 TEMPO 2318/2403 4000 TSRA SCT015 FEW018CB BKN020 BKN080 BECMG 2410/2412 31010KT

Decode

Destination Runways

ID Width Length Bearing (true) Bearing (mag) Surface Threshold Offset Overrun Length
17 148 ft / 45 m 7,815 ft / 2,382 m 168.81° 164.67° Asphalt 1,348 ft / 411 m 0 ft / 0 m
35 148 ft / 45 m 7,815 ft / 2,382 m 348.81° 344.67° Asphalt 213 ft / 65 m 0 ft / 0 m

Popular Alternatives